Shirley, Maine
Current Conditions -  °F | °C
As of 12:53 PM on Tuesday 21 Oct 2014 (Local Time) from KMLT Reporting Station
Overcast Overcast  
Wind Chill: 47°   Ceiling: 4600
Heat Index: 47°   Visibility: 10mi
Dew Point: 33°   Wind: 3mph
Humidity: 59%   Direction: 40°NE
Pressure: 30.13"   Gusts: NA
Location:  45.3646°N, 69.6212°W
Report Text: KMLT 211653Z AUTO 04003KT 10SM BKN046 OVC055 08/01 A3013 RMK AO2 RAB38E48 SLP211 P0000 T00830006
Loading
Personal Weather Stations






























Interactive Weather Map
Tropical Storm Tracking
New forecast layout! Learn more

10-Day Weather Forecast

Advertisements
Track Severe Weather on mobile